PAJNCYXY

Guest
Details From PAJN - Juneau Intl
To CYXY - WHITEHORSE INTL
Flight Number -
Tags decoded
Created
Modified
Stats Distance 155 nm / 288 km
Max Altitude 0 ft / 0 m
Waypoints 6
Social Downloads 11
Likes 1
Share VATSIM

Download

Looking for another format? Having issues loading an existing format? Contact us
Advertisement - Login to hide

Notes

Requested: PAJN CHILL B38 HNS V428 YXY CYXY

Route

PAJN CHILL B38 HNS V428 YXY CYXY

ID Type Via Altitude Latitude Longitude Leg Dist Tot Dist Heading (true) Name
O PAJN APT - 0 ft / 0 m 58.35496˚ -134.57628˚ - 0 nm - Juneau Intl
CHILL FIX - 0 ft / 0 m 58.61503˚ -135.33041˚ 28 nm 28 nm 304° / 303° -
HNS NDB B38 (AWY-LO) 0 ft / 0 m 59.21208˚ -135.43086˚ 35 nm 64 nm 355° / 355° HAINES NDB
HNS30 FIX V428 (AWY-LO) 0 ft / 0 m 59.71250˚ -135.33333˚ 30 nm 94 nm 6° / 6° -
YXY VOR V428 (AWY-LO) 0 ft / 0 m 60.61889˚ -135.13889˚ 54 nm 149 nm 6° / 6° WHITEHORSE VOR-DME
O CYXY APT - 0 ft / 0 m 60.71219˚ -135.06711˚ 5 nm 155 nm 21° / 21° WHITEHORSE INTL

Altitude Profile

Advertisement - Login to hide

PAJN

Details ICAO PAJN (JNU)
Name Juneau Intl
Region USA (Alaska)
Timezone America/Juneau (UTC-9.0)
Stats Elevation 21 ft / 6 m (AMSL)
Location 58.354964° -134.576278°
Runways 1
Magnetic Variation 19.147° E

METAR

PAJN 151353Z 06003KT 10SM FEW023 BKN037 OVC046 04/03 A2992

Decode

TAF

PAJN 151148Z 1512/1612 08007KT P6SM -SHRA FEW011 BKN035 OVC050 FM151900 10009KT P6SM VCSH SCT030 BKN050 OVC070 FM160000 10007KT P6SM OVC070 FM160600 10010KT P6SM VCSH BKN030 OVC050 FM160900 11020G30KT 5SM -RA OVC030

Decode

Departure Runways

ID Width Length Bearing (true) Bearing (mag) Surface Threshold Offset Overrun Length
08 150 ft / 46 m 8,430 ft / 2,570 m 104.87° 85.72° Asphalt 0 ft / 0 m 450 ft / 137 m
26 150 ft / 46 m 8,430 ft / 2,570 m 284.90° 265.75° Asphalt 0 ft / 0 m 225 ft / 69 m

CYXY

Details ICAO CYXY (YXY)
Name WHITEHORSE INTL
Region Canada
Timezone America/Whitehorse (UTC-8.0)
Stats Elevation 2,317 ft / 706 m (AMSL)
Location 60.712191° -135.067108°
Runways 3
Magnetic Variation 19.682° E

METAR

CYXY 151400Z 15013KT 15SM BKN080 OVC100 M01/M05 A2962 RMK AC6AC2 SLP066

Decode

TAF

TAF CYXY 151138Z 1512/1524 17012KT WS008/20040KT P6SM SCT050 BKN120 FM151300 19012KT P6SM BKN050 BKN120 TEMPO 1513/1519 5SM -SN FM151900 17012KT P6SM SCT050 RMK NXT FCST BY 151800Z

Decode

Destination Runways

ID Width Length Bearing (true) Bearing (mag) Surface Threshold Offset Overrun Length
01 75 ft / 23 m 2,070 ft / 631 m 31.99° 12.31° Asphalt 335 ft / 102 m 0 ft / 0 m
13L 80 ft / 24 m 3,922 ft / 1,195 m 158.54° 138.86° Asphalt 0 ft / 0 m 0 ft / 0 m
13R 150 ft / 46 m 9,469 ft / 2,886 m 159.27° 139.59° Asphalt 850 ft / 259 m 100 ft / 30 m
19 75 ft / 23 m 2,070 ft / 631 m 212.00° 192.32° Asphalt 0 ft / 0 m 0 ft / 0 m
31L 150 ft / 46 m 9,469 ft / 2,886 m 339.29° 319.61° Asphalt 1,400 ft / 427 m 100 ft / 30 m
31R 80 ft / 24 m 3,922 ft / 1,195 m 338.54° 318.86° Asphalt 0 ft / 0 m 0 ft / 0 m

Popular Alternatives